createdAt,value
2022-10-23T00:01:26.475Z,4.77
2022-10-23T00:03:58.593Z,4.60
2022-10-23T00:06:27.995Z,4.41
2022-10-23T00:08:56.934Z,4.57
2022-10-23T00:11:27.732Z,4.63
2022-10-23T00:13:57.704Z,4.63
2022-10-23T00:16:26.697Z,4.49
2022-10-23T00:18:56.508Z,4.61
2022-10-23T00:21:25.783Z,4.62
2022-10-23T00:23:54.241Z,4.30
2022-10-23T00:26:22.616Z,4.58
2022-10-23T00:28:53.122Z,4.58
2022-10-23T00:31:22.573Z,4.33
2022-10-23T00:33:51.732Z,4.59
2022-10-23T00:36:22.562Z,4.56
2022-10-23T00:38:52.129Z,4.54
2022-10-23T00:41:22.821Z,4.50
2022-10-23T00:44:01.024Z,4.51
2022-10-23T00:46:29.626Z,4.50
2022-10-23T00:48:58.383Z,4.50
2022-10-23T00:51:30.384Z,4.37
2022-10-23T00:54:22.841Z,4.50
2022-10-23T00:56:49.523Z,4.45
2022-10-23T00:59:17.973Z,4.46
2022-10-23T01:01:46.975Z,4.46
2022-10-23T01:04:15.549Z,4.20
2022-10-23T01:06:52.131Z,4.31
2022-10-23T01:09:25.552Z,4.00
2022-10-23T01:11:57.517Z,4.32
2022-10-23T01:14:31.127Z,4.37
2022-10-23T01:17:04.386Z,4.17
2022-10-23T01:19:45.794Z,4.13
2022-10-23T01:22:29.766Z,4.30
2022-10-23T01:24:59.981Z,4.26
2022-10-23T01:27:33.179Z,4.24
2022-10-23T01:30:07.112Z,4.24
2022-10-23T01:32:46.113Z,4.20
2022-10-23T01:35:17.577Z,4.15
2022-10-23T01:37:52.817Z,3.92
2022-10-23T01:40:25.105Z,4.05
2022-10-23T01:42:57.034Z,3.98
2022-10-23T01:45:31.792Z,3.87
2022-10-23T01:48:02.610Z,3.72
2022-10-23T01:50:31.923Z,3.71
2022-10-23T01:53:11.190Z,3.58
2022-10-23T01:58:17.012Z,3.41
2022-10-23T02:00:46.859Z,3.29
2022-10-23T02:03:17.748Z,3.26
2022-10-23T02:05:46.293Z,3.00
2022-10-23T02:08:15.064Z,3.10
2022-10-23T02:10:49.342Z,2.59
2022-10-23T02:13:26.766Z,3.01
2022-10-23T02:16:02.362Z,2.66
2022-10-23T02:18:38.137Z,2.99
2022-10-23T02:21:10.847Z,2.81
2022-10-23T02:23:41.877Z,2.94
2022-10-23T02:26:17.358Z,2.94
2022-10-23T02:28:57.992Z,2.87
2022-10-23T02:31:26.588Z,2.97
2022-10-23T02:33:55.184Z,2.99
2022-10-23T02:36:23.812Z,2.97
2022-10-23T02:38:52.547Z,2.75
2022-10-23T02:41:33.305Z,2.63
2022-10-23T02:44:19.711Z,2.67
2022-10-23T02:46:52.647Z,2.68
2022-10-23T02:49:24.844Z,2.61
2022-10-23T02:52:04.361Z,2.52
2022-10-23T02:54:51.994Z,2.58
2022-10-23T02:57:24.922Z,2.66
2022-10-23T03:00:02.743Z,2.65
2022-10-23T03:02:35.273Z,2.65
2022-10-23T03:05:05.144Z,2.48
2022-10-23T03:07:34.413Z,2.54
2022-10-23T03:10:08.718Z,2.59
2022-10-23T03:12:38.078Z,2.45
2022-10-23T03:15:10.151Z,2.54
2022-10-23T03:17:38.610Z,2.30
2022-10-23T03:20:07.985Z,2.43
2022-10-23T03:22:37.360Z,2.49
2022-10-23T03:25:06.681Z,2.43
2022-10-23T03:27:36.697Z,2.47
2022-10-23T03:30:10.367Z,2.44
2022-10-23T03:32:41.207Z,2.18
2022-10-23T03:35:10.105Z,2.41
2022-10-23T03:37:39.039Z,2.12
2022-10-23T03:40:08.702Z,2.34
2022-10-23T03:42:37.080Z,1.83
2022-10-23T03:45:06.138Z,2.32
2022-10-23T03:47:41.112Z,2.31
2022-10-23T03:50:10.936Z,2.30
2022-10-23T03:52:39.627Z,2.12
2022-10-23T03:55:09.314Z,2.30
2022-10-23T03:57:38.313Z,2.28
2022-10-23T04:00:08.273Z,2.12
2022-10-23T04:02:46.487Z,2.24
2022-10-23T04:05:15.466Z,2.23
2022-10-23T04:07:53.349Z,2.21
2022-10-23T04:10:21.844Z,2.05
2022-10-23T04:12:50.227Z,1.86
2022-10-23T04:15:18.749Z,2.14
2022-10-23T04:17:49.377Z,1.84
2022-10-23T04:20:17.928Z,1.92
2022-10-23T04:22:46.539Z,1.93
2022-10-23T04:25:16.689Z,2.02
2022-10-23T04:27:46.076Z,2.09
2022-10-23T04:30:15.048Z,2.08
2022-10-23T04:32:43.526Z,1.96
2022-10-23T04:35:13.333Z,2.08
2022-10-23T04:37:41.848Z,1.98
2022-10-23T04:40:11.135Z,1.88
2022-10-23T04:42:40.970Z,1.91
2022-10-23T04:45:09.873Z,2.17
2022-10-23T04:47:38.721Z,2.19
2022-10-23T04:50:08.213Z,2.24
2022-10-23T04:52:58.898Z,1.98
2022-10-23T04:55:50.524Z,2.31
2022-10-23T04:58:25.193Z,2.34
2022-10-23T05:00:54.434Z,2.22
2022-10-23T05:03:26.910Z,2.29
2022-10-23T05:05:56.746Z,2.39
2022-10-23T05:08:26.716Z,2.41
2022-10-23T05:11:13.694Z,2.43
2022-10-23T05:13:46.609Z,2.45
2022-10-23T05:16:27.755Z,2.47
2022-10-23T05:18:56.146Z,2.35
2022-10-23T05:21:26.728Z,2.64
2022-10-23T05:23:57.491Z,2.72
2022-10-23T05:26:26.421Z,2.75
2022-10-23T05:28:54.978Z,2.86
2022-10-23T05:31:25.842Z,3.04
2022-10-23T05:33:58.357Z,3.02
2022-10-23T05:36:27.052Z,3.25
2022-10-23T05:39:01.142Z,3.39
2022-10-23T05:41:29.559Z,3.53
2022-10-23T05:44:00.021Z,3.64
2022-10-23T05:46:46.782Z,3.72
2022-10-23T05:49:33.711Z,3.70
2022-10-23T05:52:34.464Z,3.79
2022-10-23T05:55:19.716Z,3.83
2022-10-23T05:58:07.400Z,3.98
2022-10-23T06:01:17.513Z,3.72
2022-10-23T06:04:06.859Z,3.85
2022-10-23T06:07:07.606Z,4.03
2022-10-23T06:09:36.071Z,4.09
2022-10-23T06:12:06.440Z,4.02
2022-10-23T06:14:35.380Z,4.04
2022-10-23T06:17:04.122Z,4.40
2022-10-23T06:19:40.871Z,4.52
2022-10-23T06:22:09.353Z,4.63
2022-10-23T06:24:59.818Z,4.62
2022-10-23T06:27:30.468Z,4.62
2022-10-23T06:29:58.824Z,4.32
2022-10-23T06:32:32.748Z,4.77
2022-10-23T06:35:11.197Z,4.84
2022-10-23T06:37:40.056Z,4.38
2022-10-23T06:40:19.744Z,4.90
2022-10-23T06:43:10.959Z,5.12
2022-10-23T06:46:02.277Z,4.97
2022-10-23T06:49:02.647Z,5.22
2022-10-23T06:51:34.766Z,5.31
2022-10-23T06:54:03.111Z,5.45
2022-10-23T06:56:54.593Z,5.51
2022-10-23T06:59:32.404Z,5.62
2022-10-23T07:02:01.855Z,5.25
2022-10-23T07:04:30.345Z,5.39
2022-10-23T07:06:59.632Z,5.42
2022-10-23T07:09:36.919Z,5.47
2022-10-23T07:12:13.995Z,5.56
2022-10-23T07:14:50.391Z,5.34
2022-10-23T07:17:18.889Z,5.47
2022-10-23T07:19:47.990Z,5.42
2022-10-23T07:22:17.265Z,5.57
2022-10-23T07:25:06.756Z,5.71
2022-10-23T07:27:41.126Z,5.64
2022-10-23T07:30:14.406Z,5.76
2022-10-23T07:32:50.671Z,5.39
2022-10-23T07:35:28.187Z,5.45
2022-10-23T07:38:04.831Z,5.64
2022-10-23T07:40:36.776Z,5.56
2022-10-23T07:43:05.991Z,5.85
2022-10-23T07:45:35.848Z,5.81
2022-10-23T07:48:11.750Z,5.79
2022-10-23T07:51:08.624Z,5.97
2022-10-23T07:53:41.645Z,5.96
2022-10-23T07:56:30.301Z,6.07
2022-10-23T07:59:17.716Z,5.99
2022-10-23T08:01:56.659Z,5.80
2022-10-23T08:04:38.929Z,5.92
2022-10-23T08:07:25.945Z,6.08
2022-10-23T08:09:57.503Z,6.05
2022-10-23T08:12:27.038Z,6.43
2022-10-23T08:14:56.558Z,6.54
2022-10-23T08:17:29.217Z,6.56
2022-10-23T08:20:14.801Z,6.39
2022-10-23T08:22:45.692Z,6.67
2022-10-23T08:25:24.698Z,6.57
2022-10-23T08:27:54.753Z,6.24
2022-10-23T08:30:23.418Z,6.14
2022-10-23T08:32:53.272Z,6.08
2022-10-23T08:35:22.210Z,5.83
2022-10-23T08:37:51.018Z,6.05
2022-10-23T08:40:23.426Z,5.76
2022-10-23T08:43:17.567Z,5.91
2022-10-23T08:46:05.117Z,6.18
2022-10-23T08:49:00.027Z,6.09
2022-10-23T08:52:04.694Z,5.94
2022-10-23T08:54:40.444Z,5.97
2022-10-23T08:57:14.146Z,5.86
2022-10-23T08:59:47.948Z,5.53
2022-10-23T09:02:19.789Z,5.94
2022-10-23T09:04:50.741Z,5.60
2022-10-23T09:07:29.731Z,5.98
2022-10-23T09:10:05.500Z,6.02
2022-10-23T09:12:33.916Z,6.17
2022-10-23T09:15:21.040Z,6.28
2022-10-23T09:17:51.170Z,6.01
2022-10-23T09:20:25.894Z,6.51
2022-10-23T09:22:59.604Z,6.48
2022-10-23T09:25:30.044Z,6.57
2022-10-23T09:28:02.916Z,6.54
2022-10-23T09:30:36.409Z,6.56
2022-10-23T09:33:15.779Z,6.31
2022-10-23T09:35:56.320Z,6.52
2022-10-23T09:38:29.284Z,6.53
2022-10-23T09:40:59.402Z,6.40
2022-10-23T09:43:28.828Z,6.66
2022-10-23T09:46:05.195Z,6.69
2022-10-23T09:48:42.476Z,6.38
2022-10-23T09:51:21.037Z,6.48
2022-10-23T09:53:51.718Z,6.43
2022-10-23T09:56:28.294Z,6.44
2022-10-23T09:58:58.672Z,6.18
2022-10-23T10:01:28.976Z,6.08
2022-10-23T10:04:06.707Z,6.13
2022-10-23T10:06:37.542Z,6.19
2022-10-23T10:09:09.877Z,6.01
2022-10-23T10:11:42.873Z,6.02
2022-10-23T10:14:28.557Z,5.81
2022-10-23T10:17:01.012Z,5.90
2022-10-23T10:19:41.101Z,5.89
2022-10-23T10:22:19.040Z,5.77
2022-10-23T10:24:50.977Z,5.79
2022-10-23T10:27:30.400Z,5.67
2022-10-23T10:30:06.074Z,5.81
2022-10-23T10:32:40.580Z,5.86
2022-10-23T10:35:21.673Z,5.69
2022-10-23T10:38:14.076Z,5.94
2022-10-23T10:40:44.199Z,5.97
2022-10-23T10:43:25.829Z,5.98
2022-10-23T10:45:59.139Z,6.01
2022-10-23T10:48:40.863Z,5.89
2022-10-23T10:51:46.070Z,6.12
2022-10-23T10:54:37.636Z,6.13
2022-10-23T10:57:12.908Z,6.23
2022-10-23T10:59:45.900Z,6.21
2022-10-23T11:02:25.346Z,6.07
2022-10-23T11:04:58.416Z,5.97
2022-10-23T11:07:35.635Z,5.91
2022-10-23T11:10:22.646Z,5.56
2022-10-23T11:12:51.472Z,5.79
2022-10-23T11:15:22.303Z,5.83
2022-10-23T11:17:52.469Z,5.93
2022-10-23T11:20:33.099Z,5.95
2022-10-23T11:23:09.940Z,6.01
2022-10-23T11:25:56.665Z,5.98
2022-10-23T11:28:35.539Z,5.81
2022-10-23T11:31:13.501Z,5.89
2022-10-23T11:34:02.953Z,5.88
2022-10-23T11:36:44.063Z,5.73
2022-10-23T11:39:30.860Z,5.75
2022-10-23T11:42:17.424Z,5.57
2022-10-23T11:44:47.001Z,5.22
2022-10-23T11:47:37.983Z,5.51
2022-10-23T11:50:27.017Z,5.50
2022-10-23T11:53:17.107Z,5.53
2022-10-23T11:56:06.862Z,5.35
2022-10-23T11:58:45.324Z,5.65
2022-10-23T12:01:30.084Z,5.74
2022-10-23T12:04:01.033Z,5.67
2022-10-23T12:06:32.342Z,5.79
2022-10-23T12:09:03.551Z,5.88
2022-10-23T12:11:44.069Z,5.87
2022-10-23T12:14:29.298Z,5.96
2022-10-23T12:16:57.742Z,5.96
2022-10-23T12:19:27.790Z,5.95
2022-10-23T12:21:59.174Z,5.76
2022-10-23T12:24:39.932Z,5.90
2022-10-23T12:27:18.165Z,5.78
2022-10-23T12:30:05.579Z,5.82
2022-10-23T12:32:48.243Z,5.84
2022-10-23T12:35:49.396Z,5.64
2022-10-23T12:38:20.094Z,5.45
2022-10-23T12:40:53.290Z,5.50
2022-10-23T12:43:27.955Z,5.31
2022-10-23T12:45:59.637Z,5.58
2022-10-23T12:48:28.099Z,5.45
2022-10-23T12:50:57.128Z,5.61
2022-10-23T12:53:26.279Z,5.66
2022-10-23T12:56:01.639Z,5.53
2022-10-23T12:58:32.169Z,5.44
2022-10-23T13:01:07.419Z,5.49
2022-10-23T13:03:36.889Z,5.50
2022-10-23T13:06:06.223Z,5.36
2022-10-23T13:08:36.229Z,5.46
2022-10-23T13:11:43.231Z,5.17
2022-10-23T13:14:15.559Z,5.51
2022-10-23T13:16:45.531Z,5.50
2022-10-23T13:19:26.127Z,5.23
2022-10-23T13:21:54.626Z,5.33
2022-10-23T13:24:24.160Z,5.25
2022-10-23T13:26:52.840Z,5.37
2022-10-23T13:29:22.983Z,5.22
2022-10-23T13:31:53.132Z,5.19
2022-10-23T13:34:31.595Z,5.40
2022-10-23T13:37:03.324Z,5.26
2022-10-23T13:39:33.331Z,5.35
2022-10-23T13:42:07.341Z,5.35
2022-10-23T13:44:37.429Z,5.40
2022-10-23T13:47:07.622Z,5.45
2022-10-23T13:49:36.102Z,5.47
2022-10-23T13:52:04.631Z,5.40
2022-10-23T13:54:33.189Z,5.42
2022-10-23T13:57:01.677Z,5.52
2022-10-23T13:59:30.179Z,5.48
2022-10-23T14:01:59.354Z,5.37
2022-10-23T14:04:29.342Z,5.47
2022-10-23T14:06:58.741Z,5.38
2022-10-23T14:09:27.303Z,5.49
2022-10-23T14:11:55.778Z,5.41
2022-10-23T14:14:24.308Z,5.34
2022-10-23T14:16:53.394Z,5.27
2022-10-23T14:19:21.928Z,5.27
2022-10-23T14:21:51.778Z,5.21
2022-10-23T14:24:20.247Z,5.18
2022-10-23T14:26:48.695Z,5.17
2022-10-23T14:29:23.060Z,5.02
2022-10-23T14:31:52.595Z,5.21
2022-10-23T14:34:21.095Z,5.09
2022-10-23T14:39:25.124Z,5.24
2022-10-23T14:41:53.639Z,5.39
2022-10-23T14:44:22.087Z,5.46
2022-10-23T14:46:50.584Z,5.33
2022-10-23T14:49:19.156Z,5.48
2022-10-23T14:51:48.665Z,5.30
2022-10-23T14:54:19.286Z,5.50
2022-10-23T14:56:47.756Z,5.63
2022-10-23T14:59:16.327Z,5.63
2022-10-23T15:01:48.431Z,5.63
2022-10-23T15:04:17.177Z,5.48
2022-10-23T15:06:47.282Z,5.42
2022-10-23T15:09:16.492Z,5.29
2022-10-23T15:11:46.372Z,5.33
2022-10-23T15:14:15.030Z,5.24
2022-10-23T15:16:43.469Z,5.23
2022-10-23T15:19:17.068Z,5.46
2022-10-23T15:21:48.044Z,5.40
2022-10-23T15:24:16.600Z,5.48
2022-10-23T15:26:47.016Z,5.44
2022-10-23T15:29:16.047Z,5.22
2022-10-23T15:31:50.248Z,5.28
2022-10-23T15:34:20.345Z,5.19
2022-10-23T15:36:49.328Z,5.45
2022-10-23T15:39:19.394Z,5.51
2022-10-23T15:41:56.069Z,5.42
2022-10-23T15:44:26.075Z,5.40
2022-10-23T15:46:57.070Z,5.62
2022-10-23T15:49:26.217Z,5.60
2022-10-23T15:51:54.820Z,5.49
2022-10-23T15:54:23.855Z,5.64
2022-10-23T15:56:55.567Z,5.67
2022-10-23T15:59:26.029Z,5.61
2022-10-23T16:01:55.751Z,5.67
2022-10-23T16:04:24.553Z,5.52
2022-10-23T16:06:53.119Z,5.45
2022-10-23T16:09:21.653Z,5.76
2022-10-23T16:11:50.178Z,5.78
2022-10-23T16:14:20.238Z,5.82
2022-10-23T16:16:48.810Z,5.66
2022-10-23T16:19:17.336Z,5.65
2022-10-23T16:21:45.772Z,5.84
2022-10-23T16:24:14.309Z,5.82
2022-10-23T16:26:42.805Z,5.83
2022-10-23T16:29:12.457Z,5.85
2022-10-23T16:31:42.348Z,5.82
2022-10-23T16:34:11.945Z,5.83
2022-10-23T16:36:40.486Z,5.88
2022-10-23T16:39:10.212Z,5.85
2022-10-23T16:41:57.263Z,5.71
2022-10-23T16:44:30.731Z,5.74
2022-10-23T16:47:02.292Z,5.69
2022-10-23T16:49:32.322Z,5.74
2022-10-23T16:52:00.803Z,5.75
2022-10-23T16:54:29.256Z,5.79
2022-10-23T16:56:58.774Z,5.77
2022-10-23T16:59:27.322Z,5.83
2022-10-23T17:01:55.834Z,5.69
2022-10-23T17:04:25.772Z,5.69
2022-10-23T17:06:54.228Z,5.89
2022-10-23T17:09:23.752Z,5.84
2022-10-23T17:11:53.942Z,5.93
2022-10-23T17:14:25.191Z,5.91
2022-10-23T17:16:55.103Z,5.93
2022-10-23T17:19:47.019Z,5.62
2022-10-23T17:22:16.078Z,5.82
2022-10-23T17:24:47.448Z,5.83
2022-10-23T17:27:18.943Z,5.86
2022-10-23T17:29:47.454Z,5.86
2022-10-23T17:32:15.936Z,5.76
2022-10-23T17:34:46.696Z,6.00
2022-10-23T17:37:15.055Z,6.01
2022-10-23T17:39:43.559Z,5.90
2022-10-23T17:42:12.936Z,6.03
2022-10-23T17:44:41.359Z,5.97
2022-10-23T17:47:09.867Z,6.03
2022-10-23T17:49:39.628Z,6.06
2022-10-23T17:52:14.420Z,5.81
2022-10-23T17:54:43.410Z,6.05
2022-10-23T17:57:11.832Z,6.07
2022-10-23T17:59:40.243Z,6.07
2022-10-23T18:02:13.119Z,6.03
2022-10-23T18:04:41.700Z,6.02
2022-10-23T18:07:11.573Z,6.03
2022-10-23T18:09:40.113Z,6.01
2022-10-23T18:12:08.692Z,6.06
2022-10-23T18:14:37.834Z,6.08
2022-10-23T18:17:06.244Z,5.97
2022-10-23T18:19:34.738Z,5.88
2022-10-23T18:22:03.127Z,6.10
2022-10-23T18:24:33.010Z,6.07
2022-10-23T18:27:01.426Z,6.01
2022-10-23T18:29:30.954Z,6.04
2022-10-23T18:31:59.814Z,6.06
2022-10-23T18:34:28.367Z,6.10
2022-10-23T18:36:56.911Z,5.95
2022-10-23T18:39:27.151Z,6.07
2022-10-23T18:41:58.080Z,6.07
2022-10-23T18:44:29.213Z,6.11
2022-10-23T18:46:59.076Z,6.12
2022-10-23T18:49:27.907Z,6.10
2022-10-23T18:51:56.506Z,6.09
2022-10-23T18:54:24.947Z,5.92
2022-10-23T18:56:53.666Z,6.05
2022-10-23T18:59:24.315Z,5.84
2022-10-23T19:01:52.872Z,6.03
2022-10-23T19:04:21.440Z,6.13
2022-10-23T19:06:51.040Z,6.10
2022-10-23T19:09:19.608Z,6.12
2022-10-23T19:11:48.222Z,6.09
2022-10-23T19:14:16.640Z,6.06
2022-10-23T19:16:54.358Z,5.96
2022-10-23T19:19:24.919Z,6.10
2022-10-23T19:21:53.749Z,6.13
2022-10-23T19:24:25.563Z,6.10
2022-10-23T19:26:54.046Z,5.80
2022-10-23T19:29:23.916Z,5.93
2022-10-23T19:31:54.441Z,5.61
2022-10-23T19:34:25.322Z,5.55
2022-10-23T19:36:54.832Z,5.65
2022-10-23T19:39:26.730Z,5.39
2022-10-23T19:42:05.241Z,5.53
2022-10-23T19:44:34.069Z,5.43
2022-10-23T19:47:04.339Z,5.50
2022-10-23T19:49:32.813Z,5.44
2022-10-23T19:52:01.203Z,5.44
2022-10-23T19:54:30.282Z,5.31
2022-10-23T19:56:58.914Z,5.38
2022-10-23T19:59:27.472Z,5.20
2022-10-23T20:01:56.106Z,5.36
2022-10-23T20:04:26.340Z,5.17
2022-10-23T20:06:54.901Z,5.28
2022-10-23T20:09:24.055Z,5.09
2022-10-23T20:11:55.213Z,5.22
2022-10-23T20:14:23.686Z,5.18
2022-10-23T20:16:55.682Z,5.22
2022-10-23T20:19:25.959Z,5.22
2022-10-23T20:21:54.497Z,4.98
2022-10-23T20:24:23.171Z,4.99
2022-10-23T20:26:55.489Z,5.11
2022-10-23T20:29:24.820Z,4.97
2022-10-23T20:31:53.747Z,4.89
2022-10-23T20:34:22.249Z,5.05
2022-10-23T20:36:52.143Z,5.05
2022-10-23T20:39:25.576Z,4.97
2022-10-23T20:41:55.334Z,4.82
2022-10-23T20:44:24.759Z,5.02
2022-10-23T20:46:53.522Z,5.01
2022-10-23T20:49:22.296Z,4.84
2022-10-23T20:51:55.215Z,4.99
2022-10-23T20:54:24.568Z,4.98
2022-10-23T20:56:52.987Z,4.97
2022-10-23T20:59:21.543Z,4.99
2022-10-23T21:01:53.239Z,4.96
2022-10-23T21:04:26.583Z,4.94
2022-10-23T21:07:09.596Z,4.99
2022-10-23T21:09:39.029Z,4.97
2022-10-23T21:12:08.018Z,4.85
2022-10-23T21:14:36.591Z,4.81
2022-10-23T21:17:05.943Z,4.96
2022-10-23T21:19:34.427Z,4.84
2022-10-23T21:22:04.278Z,4.98
2022-10-23T21:24:32.811Z,4.93
2022-10-23T21:27:01.323Z,4.96
2022-10-23T21:29:29.849Z,4.95
2022-10-23T21:32:01.189Z,4.92
2022-10-23T21:34:31.341Z,4.83
2022-10-23T21:37:12.502Z,4.94
2022-10-23T21:39:43.774Z,4.95
2022-10-23T21:42:12.608Z,4.83
2022-10-23T21:44:41.144Z,4.91
2022-10-23T21:47:09.556Z,4.89
2022-10-23T21:49:38.087Z,4.93
2022-10-23T21:52:06.613Z,4.92
2022-10-23T21:54:35.019Z,4.90
2022-10-23T21:57:04.934Z,4.84
2022-10-23T21:59:36.085Z,4.82
2022-10-23T22:02:05.122Z,4.69
2022-10-23T22:04:33.645Z,4.70
2022-10-23T22:07:02.901Z,4.71
2022-10-23T22:09:32.376Z,4.79
2022-10-23T22:12:01.343Z,4.67
2022-10-23T22:14:31.251Z,4.76
2022-10-23T22:16:59.702Z,4.76
2022-10-23T22:19:28.028Z,4.73
2022-10-23T22:21:59.301Z,4.67
2022-10-23T22:24:27.724Z,4.70
2022-10-23T22:26:57.280Z,4.72
2022-10-23T22:29:27.580Z,4.66
2022-10-23T22:31:57.251Z,4.55
2022-10-23T22:34:48.308Z,4.72
2022-10-23T22:37:15.772Z,4.68
2022-10-23T22:39:44.194Z,4.67
2022-10-23T22:42:12.590Z,4.70
2022-10-23T22:44:40.946Z,4.63
2022-10-23T22:47:10.620Z,4.70
2022-10-23T22:49:39.549Z,4.53
2022-10-23T22:52:07.836Z,4.66
2022-10-23T22:54:36.145Z,4.71
2022-10-23T22:57:04.572Z,4.65
2022-10-23T22:59:32.913Z,4.73
2022-10-23T23:02:01.219Z,4.58
2022-10-23T23:04:38.924Z,4.72
2022-10-23T23:07:08.537Z,4.73
2022-10-23T23:09:38.832Z,4.72
2022-10-23T23:12:07.713Z,4.72
2022-10-23T23:14:36.014Z,4.75
2022-10-23T23:17:04.413Z,4.74
2022-10-23T23:19:34.383Z,4.77
2022-10-23T23:22:03.672Z,4.81
2022-10-23T23:24:32.288Z,4.82
2022-10-23T23:27:00.646Z,4.79
2022-10-23T23:29:29.765Z,4.83
2022-10-23T23:31:58.230Z,4.82
2022-10-23T23:34:26.544Z,4.75
2022-10-23T23:36:56.278Z,4.72
2022-10-23T23:39:26.196Z,4.75
2022-10-23T23:41:54.531Z,4.75
2022-10-23T23:44:23.029Z,4.59
2022-10-23T23:46:51.322Z,4.70
2022-10-23T23:49:19.622Z,4.73
2022-10-23T23:51:47.964Z,4.66
2022-10-23T23:54:17.838Z,4.68
2022-10-23T23:56:46.111Z,4.54
2022-10-23T23:59:14.360Z,4.66
